createdAt,value
2019-03-28T00:01:38.410Z,7.60
2019-03-28T00:04:27.173Z,7.60
2019-03-28T00:07:15.873Z,7.60
2019-03-28T00:10:04.824Z,7.60
2019-03-28T00:12:53.608Z,7.60
2019-03-28T00:15:34.902Z,7.60
2019-03-28T00:18:15.732Z,7.70
2019-03-28T00:20:57.137Z,7.60
2019-03-28T00:24:00.296Z,7.60
2019-03-28T00:26:41.235Z,7.60
2019-03-28T00:29:22.393Z,7.60
2019-03-28T00:32:03.590Z,7.50
2019-03-28T00:34:44.916Z,7.50
2019-03-28T00:37:26.360Z,7.50
2019-03-28T00:40:07.675Z,7.50
2019-03-28T00:42:48.217Z,7.50
2019-03-28T00:45:29.478Z,7.50
2019-03-28T00:48:10.302Z,7.50
2019-03-28T00:50:51.490Z,7.40
2019-03-28T00:53:21.448Z,7.40
2019-03-28T00:56:10.117Z,7.40
2019-03-28T00:58:59.138Z,7.40
2019-03-28T01:01:49.182Z,7.40
2019-03-28T01:04:37.826Z,7.30
2019-03-28T01:07:07.635Z,7.20
2019-03-28T01:09:56.290Z,7.10
2019-03-28T01:12:45.043Z,7.10
2019-03-28T01:15:26.202Z,7.00
2019-03-28T01:18:07.540Z,7.00
2019-03-28T01:20:48.922Z,7.00
2019-03-28T01:23:31.366Z,7.00
2019-03-28T01:26:12.304Z,6.90
2019-03-28T01:28:42.290Z,6.80
2019-03-28T01:31:31.024Z,6.70
2019-03-28T01:34:19.655Z,6.70
2019-03-28T01:37:08.408Z,6.60
2019-03-28T01:39:57.046Z,6.50
2019-03-28T01:42:45.805Z,6.50
2019-03-28T01:45:34.395Z,6.40
2019-03-28T01:48:23.103Z,6.30
2019-03-28T01:51:11.811Z,6.30
2019-03-28T01:54:00.578Z,6.20
2019-03-28T01:56:49.235Z,6.20
2019-03-28T01:59:38.105Z,6.20
2019-03-28T02:02:26.904Z,6.20
2019-03-28T02:05:15.615Z,6.10
2019-03-28T02:08:04.328Z,6.10
2019-03-28T02:10:53.053Z,6.10
2019-03-28T02:16:29.075Z,6.10
2019-03-28T02:19:10.412Z,6.10
2019-03-28T02:21:51.631Z,6.00
2019-03-28T02:24:32.724Z,6.10
2019-03-28T02:27:23.397Z,6.10
2019-03-28T02:29:57.321Z,6.10
2019-03-28T02:32:38.451Z,6.20
2019-03-28T02:35:19.653Z,6.10
2019-03-28T02:38:00.581Z,6.10
2019-03-28T02:40:42.545Z,6.10
2019-03-28T02:43:24.213Z,6.10
2019-03-28T02:46:05.519Z,6.20
2019-03-28T02:48:46.076Z,6.10
2019-03-28T02:51:26.809Z,6.20
2019-03-28T02:54:07.787Z,6.20
2019-03-28T02:56:48.540Z,6.20
2019-03-28T02:59:29.666Z,6.20
2019-03-28T03:02:11.171Z,6.20
2019-03-28T03:04:52.281Z,6.20
2019-03-28T03:07:32.927Z,6.20
2019-03-28T03:10:14.283Z,6.20
2019-03-28T03:12:55.621Z,6.20
2019-03-28T03:15:36.850Z,6.30
2019-03-28T03:18:21.418Z,6.30
2019-03-28T03:21:00.475Z,6.30
2019-03-28T03:23:42.165Z,6.30
2019-03-28T03:26:23.016Z,6.30
2019-03-28T03:29:04.326Z,6.30
2019-03-28T03:31:34.196Z,6.30
2019-03-28T03:34:22.897Z,6.30
2019-03-28T03:37:11.619Z,6.30
2019-03-28T03:40:00.491Z,6.40
2019-03-28T03:42:50.780Z,6.40
2019-03-28T03:45:39.408Z,6.40
2019-03-28T03:48:28.121Z,6.30
2019-03-28T03:51:16.801Z,6.30
2019-03-28T03:54:07.778Z,6.30
2019-03-28T03:56:56.438Z,6.40
2019-03-28T03:59:45.166Z,6.30
2019-03-28T04:02:33.868Z,6.30
2019-03-28T04:05:22.530Z,6.30
2019-03-28T04:08:11.276Z,6.30
2019-03-28T04:10:59.985Z,6.30
2019-03-28T04:13:48.697Z,6.30
2019-03-28T04:16:29.491Z,6.30
2019-03-28T04:19:10.422Z,6.30
2019-03-28T04:21:51.387Z,6.30
2019-03-28T04:24:32.570Z,6.30
2019-03-28T04:27:02.625Z,6.30
2019-03-28T04:29:51.352Z,6.40
2019-03-28T04:32:40.019Z,6.40
2019-03-28T04:35:28.682Z,6.30
2019-03-28T04:38:17.382Z,6.30
2019-03-28T04:41:06.053Z,6.30
2019-03-28T04:43:56.039Z,6.30
2019-03-28T04:46:45.385Z,6.40
2019-03-28T04:49:35.492Z,6.40
2019-03-28T04:52:24.176Z,6.50
2019-03-28T04:55:12.832Z,6.50
2019-03-28T04:58:01.557Z,6.50
2019-03-28T05:00:50.252Z,6.50
2019-03-28T05:03:39.066Z,6.50
2019-03-28T05:06:08.959Z,6.60
2019-03-28T05:08:57.685Z,6.60
2019-03-28T05:11:46.364Z,6.60
2019-03-28T05:14:35.051Z,6.60
2019-03-28T05:17:23.730Z,6.60
2019-03-28T05:20:13.404Z,6.60
2019-03-28T05:23:02.822Z,6.60
2019-03-28T05:25:51.628Z,6.60
2019-03-28T05:28:40.326Z,6.60
2019-03-28T05:31:28.960Z,6.70
2019-03-28T05:34:17.605Z,6.70
2019-03-28T05:37:06.197Z,6.70
2019-03-28T05:39:54.883Z,6.70
2019-03-28T05:42:43.539Z,6.70
2019-03-28T05:45:32.194Z,6.80
2019-03-28T05:48:20.839Z,6.80
2019-03-28T05:51:09.528Z,6.80
2019-03-28T05:53:58.204Z,6.90
2019-03-28T05:56:46.822Z,6.90
2019-03-28T05:59:35.508Z,6.80
2019-03-28T06:02:24.541Z,6.90
2019-03-28T06:05:13.255Z,6.80
2019-03-28T06:07:43.132Z,6.80
2019-03-28T06:10:50.569Z,6.80
2019-03-28T06:13:39.526Z,6.80
2019-03-28T06:16:20.806Z,6.80
2019-03-28T06:19:01.329Z,6.90
2019-03-28T06:21:31.313Z,6.90
2019-03-28T06:24:20.084Z,6.90
2019-03-28T06:30:18.597Z,6.90
2019-03-28T06:33:07.369Z,6.80
2019-03-28T06:35:57.778Z,6.80
2019-03-28T06:38:46.460Z,6.80
2019-03-28T06:44:51.303Z,6.90
2019-03-28T06:47:39.997Z,7.00
2019-03-28T06:50:28.733Z,7.10
2019-03-28T09:32:52.052Z,8.40
2019-03-28T09:35:33.311Z,8.60
2019-03-28T09:38:14.543Z,8.60
2019-03-28T09:40:56.180Z,8.60
2019-03-28T09:43:36.850Z,8.60
2019-03-28T09:46:17.823Z,8.70
2019-03-28T09:48:59.132Z,8.60
2019-03-28T09:51:40.362Z,8.70
2019-03-28T09:54:21.780Z,8.70
2019-03-28T09:57:02.847Z,9.00
2019-03-28T09:59:44.087Z,9.40
2019-03-28T10:02:25.490Z,9.70
2019-03-28T10:05:06.361Z,9.60
2019-03-28T10:07:47.832Z,9.20
2019-03-28T10:10:29.176Z,9.10
2019-03-28T10:13:09.880Z,9.00
2019-03-28T10:15:51.380Z,9.00
2019-03-28T10:18:32.012Z,9.20
2019-03-28T10:21:13.083Z,9.30
2019-03-28T10:23:54.801Z,9.40
2019-03-28T10:26:35.631Z,9.50
2019-03-28T10:29:16.725Z,9.50
2019-03-28T10:31:58.037Z,9.50
2019-03-28T10:34:39.234Z,9.50
2019-03-28T10:37:19.988Z,9.40
2019-03-28T10:40:00.621Z,9.80
2019-03-28T10:42:44.956Z,10.30
2019-03-28T10:45:25.957Z,10.80
2019-03-28T10:48:07.322Z,10.60
2019-03-28T10:50:48.001Z,10.30
2019-03-28T10:53:30.140Z,10.00
2019-03-28T10:56:21.492Z,10.20
2019-03-28T10:58:54.835Z,10.70
2019-03-28T11:01:48.027Z,10.40
2019-03-28T11:04:18.880Z,10.20
2019-03-28T11:07:00.155Z,10.60
2019-03-28T11:09:40.955Z,10.40
2019-03-28T11:12:22.338Z,10.20
2019-03-28T11:15:03.751Z,10.00
2019-03-28T11:17:45.291Z,9.90
2019-03-28T11:20:26.209Z,9.90
2019-03-28T11:23:08.436Z,9.90
2019-03-28T11:25:49.801Z,9.80
2019-03-28T11:28:30.565Z,9.90
2019-03-28T11:31:12.062Z,10.20
2019-03-28T11:33:53.653Z,10.50
2019-03-28T11:36:34.785Z,10.10
2019-03-28T11:39:16.033Z,10.30
2019-03-28T11:42:00.415Z,10.80
2019-03-28T11:44:39.523Z,11.00
2019-03-28T11:47:22.321Z,11.00
2019-03-28T11:50:04.001Z,10.70
2019-03-28T11:52:45.047Z,10.70
2019-03-28T11:55:25.933Z,11.30
2019-03-28T11:58:07.409Z,11.80
2019-03-28T12:00:49.358Z,12.00
2019-03-28T12:03:30.262Z,11.40
2019-03-28T12:06:11.342Z,11.40
2019-03-28T12:08:55.772Z,11.50
2019-03-28T12:11:34.817Z,11.10
2019-03-28T12:14:16.151Z,11.20
2019-03-28T12:16:57.136Z,11.00
2019-03-28T12:19:37.827Z,11.00
2019-03-28T12:22:19.130Z,11.20
2019-03-28T12:25:00.666Z,11.10
2019-03-28T12:27:41.307Z,11.00
2019-03-28T12:30:22.749Z,11.40
2019-03-28T12:33:03.951Z,11.90
2019-03-28T12:35:45.171Z,12.90
2019-03-28T12:38:26.413Z,12.80
2019-03-28T12:41:07.047Z,12.00
2019-03-28T12:43:48.449Z,12.00
2019-03-28T12:46:18.320Z,11.50
2019-03-28T12:51:54.928Z,11.90
2019-03-28T12:54:44.294Z,12.00
2019-03-28T13:01:02.339Z,12.00
2019-03-28T13:03:51.039Z,11.70
2019-03-28T13:06:39.839Z,12.00
2019-03-28T13:09:28.535Z,11.80
2019-03-28T13:12:17.197Z,12.30
2019-03-28T13:18:21.163Z,11.90
2019-03-28T13:21:13.713Z,12.30
2019-03-28T13:24:00.415Z,13.00
2019-03-28T13:26:49.099Z,12.30
2019-03-28T13:29:37.987Z,11.70
2019-03-28T13:32:26.656Z,11.50
2019-03-28T13:35:15.332Z,11.60
2019-03-28T13:38:04.013Z,11.50
2019-03-28T13:40:44.886Z,11.40
2019-03-28T13:43:25.472Z,11.80
2019-03-28T13:46:06.654Z,11.90
2019-03-28T13:48:48.465Z,11.70
2019-03-28T13:51:29.439Z,11.50
2019-03-28T13:54:10.825Z,11.40
2019-03-28T13:56:54.457Z,11.30
2019-03-28T13:59:35.554Z,11.30
2019-03-28T14:02:16.846Z,11.70
2019-03-28T14:04:57.970Z,11.70
2019-03-28T14:07:38.978Z,11.60
2019-03-28T14:10:21.739Z,11.40
2019-03-28T14:13:01.886Z,11.40
2019-03-28T14:15:43.383Z,11.60
2019-03-28T14:18:24.476Z,11.70
2019-03-28T14:21:05.065Z,11.80
2019-03-28T14:23:45.784Z,12.00
2019-03-28T14:26:27.018Z,11.90
2019-03-28T14:29:08.490Z,11.80
2019-03-28T14:31:49.550Z,12.00
2019-03-28T14:34:30.696Z,12.10
2019-03-28T14:37:11.954Z,12.40
2019-03-28T14:39:53.290Z,12.60
2019-03-28T14:42:34.284Z,12.60
2019-03-28T14:45:15.262Z,12.70
2019-03-28T14:47:56.853Z,12.30
2019-03-28T14:50:37.961Z,12.00
2019-03-28T14:53:22.074Z,11.60
2019-03-28T14:56:01.804Z,11.30
2019-03-28T14:58:43.080Z,11.50
2019-03-28T15:01:26.688Z,11.70
2019-03-28T15:04:06.938Z,11.70
2019-03-28T15:06:48.216Z,12.00
2019-03-28T15:09:18.101Z,12.40
2019-03-28T15:12:06.838Z,12.50
2019-03-28T15:14:55.598Z,12.70
2019-03-28T15:17:45.095Z,12.50
2019-03-28T15:20:34.770Z,12.40
2019-03-28T15:23:23.497Z,12.30
2019-03-28T15:26:12.265Z,12.40
2019-03-28T15:29:00.930Z,12.50
2019-03-28T15:31:49.620Z,12.20
2019-03-28T15:34:30.433Z,12.30
2019-03-28T15:37:14.564Z,11.60
2019-03-28T15:40:01.509Z,11.50
2019-03-28T15:42:43.148Z,11.40
2019-03-28T15:45:23.210Z,11.30
2019-03-28T15:48:11.899Z,11.60
2019-03-28T15:51:00.599Z,11.60
2019-03-28T15:54:08.197Z,11.60
2019-03-28T15:56:58.652Z,11.20
2019-03-28T15:59:47.331Z,11.30
2019-03-28T16:02:57.280Z,11.50
2019-03-28T16:05:57.523Z,11.60
2019-03-28T16:08:36.458Z,11.70
2019-03-28T16:11:25.411Z,11.80
2019-03-28T16:14:14.171Z,11.90
2019-03-28T16:17:03.370Z,11.90
2019-03-28T16:20:04.360Z,11.80
2019-03-28T16:22:42.713Z,11.80
2019-03-28T16:25:31.449Z,11.90
2019-03-28T16:28:20.140Z,11.80
2019-03-28T16:31:08.834Z,11.80
2019-03-28T16:34:32.255Z,11.40
2019-03-28T16:37:03.651Z,11.10
2019-03-28T16:39:44.700Z,11.10
2019-03-28T16:42:25.850Z,11.20
2019-03-28T16:45:07.360Z,11.50
2019-03-28T16:47:48.622Z,11.40
2019-03-28T16:50:29.839Z,11.40
2019-03-28T16:53:11.052Z,11.40
2019-03-28T16:55:52.435Z,11.20
2019-03-28T16:58:33.258Z,11.00
2019-03-28T17:01:14.650Z,11.00
2019-03-28T17:03:55.630Z,11.00
2019-03-28T17:06:37.053Z,10.90
2019-03-28T17:09:17.804Z,10.80
2019-03-28T17:11:59.008Z,10.70
2019-03-28T17:14:40.634Z,10.60
2019-03-28T17:17:21.864Z,10.60
2019-03-28T17:20:03.156Z,10.50
2019-03-28T17:22:44.565Z,10.60
2019-03-28T17:25:25.985Z,10.50
2019-03-28T17:28:06.966Z,10.50
2019-03-28T17:30:48.669Z,10.50
2019-03-28T17:33:29.489Z,10.60
2019-03-28T17:36:16.202Z,10.60
2019-03-28T17:38:57.178Z,10.60
2019-03-28T17:41:38.528Z,10.60
2019-03-28T17:44:19.906Z,10.70
2019-03-28T17:47:01.201Z,10.60
2019-03-28T17:49:41.862Z,10.50
2019-03-28T17:52:23.210Z,10.50
2019-03-28T17:55:04.670Z,10.60
2019-03-28T17:57:45.978Z,10.50
2019-03-28T18:00:28.206Z,10.50
2019-03-28T18:03:09.077Z,10.40
2019-03-28T18:06:11.811Z,10.40
2019-03-28T18:09:00.547Z,10.40
2019-03-28T18:11:49.401Z,10.30
2019-03-28T18:14:38.686Z,10.30
2019-03-28T18:17:27.453Z,10.20
2019-03-28T18:20:16.211Z,10.20
2019-03-28T18:23:04.906Z,10.10
2019-03-28T18:25:53.593Z,10.10
2019-03-28T18:28:42.246Z,9.90
2019-03-28T18:31:23.498Z,9.90
2019-03-28T18:34:04.170Z,9.90
2019-03-28T18:36:47.291Z,10.00
2019-03-28T18:39:27.486Z,9.90
2019-03-28T18:42:08.720Z,9.80
2019-03-28T18:44:49.924Z,9.70
2019-03-28T18:47:31.277Z,9.70
2019-03-28T18:50:12.509Z,9.70
2019-03-28T18:52:53.760Z,9.70
2019-03-28T18:55:35.318Z,9.60
2019-03-28T18:58:15.976Z,9.50
2019-03-28T19:01:04.993Z,9.40
2019-03-28T19:03:53.671Z,9.30
2019-03-28T19:06:23.720Z,9.10
2019-03-28T19:09:12.495Z,8.80
2019-03-28T19:12:01.254Z,8.80
2019-03-28T19:14:49.925Z,8.80
2019-03-28T19:17:38.623Z,8.60
2019-03-28T19:20:27.299Z,8.50
2019-03-28T19:23:16.043Z,8.40
2019-03-28T19:26:04.687Z,8.30
2019-03-28T19:28:56.196Z,8.30
2019-03-28T19:31:36.404Z,8.20
2019-03-28T19:34:17.625Z,8.10
2019-03-28T19:37:27.506Z,8.00
2019-03-28T19:40:16.751Z,8.00
2019-03-28T19:43:19.248Z,8.00
2019-03-28T19:49:06.279Z,7.80
2019-03-28T19:51:55.537Z,7.60
2019-03-28T19:54:44.759Z,7.50
2019-03-28T19:57:33.447Z,7.40
2019-03-28T20:00:22.168Z,7.30
2019-03-28T20:03:10.918Z,7.30
2019-03-28T20:05:59.577Z,7.20
2019-03-28T20:08:48.251Z,7.10
2019-03-28T20:11:37.020Z,7.10
2019-03-28T20:14:25.682Z,7.00
2019-03-28T20:17:14.361Z,7.00
2019-03-28T20:23:35.679Z,6.90
2019-03-28T20:29:41.393Z,6.80
2019-03-28T20:32:23.045Z,6.70
2019-03-28T20:35:04.102Z,6.70
2019-03-28T20:37:45.294Z,6.60
2019-03-28T20:40:26.377Z,6.50
2019-03-28T20:43:08.153Z,6.40
2019-03-28T20:45:50.847Z,6.30
2019-03-28T20:48:38.771Z,6.20
2019-03-28T20:51:17.366Z,6.20
2019-03-28T20:53:58.382Z,6.10
2019-03-28T20:56:39.414Z,6.20
2019-03-28T20:59:20.706Z,6.20
2019-03-28T21:02:01.514Z,6.20
2019-03-28T21:04:43.244Z,6.10
2019-03-28T21:07:24.056Z,6.10
2019-03-28T21:10:05.331Z,6.00
2019-03-28T21:12:46.084Z,5.90
2019-03-28T21:15:27.504Z,5.90
2019-03-28T21:18:09.083Z,5.80
2019-03-28T21:20:49.748Z,5.80
2019-03-28T21:23:30.931Z,5.70
2019-03-28T21:26:10.839Z,5.60
2019-03-28T21:28:59.576Z,5.60
2019-03-28T21:31:49.821Z,5.50
2019-03-28T21:34:23.012Z,5.50
2019-03-28T21:37:06.299Z,5.40
2019-03-28T21:39:48.159Z,5.40
2019-03-28T21:45:24.077Z,5.40
2019-03-28T21:48:10.875Z,5.30
2019-03-28T21:53:35.748Z,5.30
2019-03-28T21:56:17.351Z,5.30
2019-03-28T21:58:59.101Z,5.20
2019-03-28T22:01:40.050Z,5.00
2019-03-28T22:04:24.633Z,5.00
2019-03-28T22:07:05.512Z,4.90
2019-03-28T22:09:46.811Z,5.00
2019-03-28T22:12:27.721Z,4.90
2019-03-28T22:17:57.570Z,4.90
2019-03-28T22:20:39.087Z,4.90
2019-03-28T22:23:24.520Z,5.00
2019-03-28T22:26:04.025Z,4.90
2019-03-28T22:28:45.611Z,4.90
2019-03-28T22:31:26.562Z,4.80
2019-03-28T22:34:07.829Z,4.70
2019-03-28T22:36:57.076Z,4.60
2019-03-28T22:39:32.795Z,4.40
2019-03-28T22:42:14.921Z,4.30
2019-03-28T22:44:55.634Z,4.20
2019-03-28T22:47:36.935Z,4.10
2019-03-28T22:50:18.033Z,4.00
2019-03-28T22:52:59.237Z,3.90
2019-03-28T22:55:40.548Z,3.90
2019-03-28T22:58:21.796Z,3.90
2019-03-28T23:01:03.441Z,4.00
2019-03-28T23:03:44.566Z,4.10
2019-03-28T23:06:48.907Z,4.10
2019-03-28T23:09:15.536Z,3.90
2019-03-28T23:11:56.931Z,3.90
2019-03-28T23:14:37.700Z,3.80
2019-03-28T23:17:18.733Z,3.70
2019-03-28T23:20:00.017Z,3.60
2019-03-28T23:22:40.943Z,3.60
2019-03-28T23:25:22.409Z,3.50
2019-03-28T23:28:03.143Z,3.60
2019-03-28T23:30:44.451Z,3.80
2019-03-28T23:33:24.986Z,3.70
2019-03-28T23:36:06.900Z,3.60
2019-03-28T23:38:48.267Z,3.60
2019-03-28T23:41:28.940Z,3.70
2019-03-28T23:44:09.604Z,3.70
2019-03-28T23:46:50.193Z,3.60
2019-03-28T23:49:30.919Z,3.50
2019-03-28T23:52:11.958Z,3.60
2019-03-28T23:54:53.367Z,3.50
2019-03-28T23:57:34.379Z,3.50
